sensor_id;sensor_type;location;lat;lon;timestamp;pressure;altitude;pressure_sealevel;temperature;humidity
20909;BME280;10614;53.198;6.570;2023-03-23T00:00:55;100047.88;;;9.89;100.00
20909;BME280;10614;53.198;6.570;2023-03-23T00:02:58;100045.25;;;9.89;100.00
20909;BME280;10614;53.198;6.570;2023-03-23T00:05:01;100049.56;;;9.90;100.00
20909;BME280;10614;53.198;6.570;2023-03-23T00:07:03;100041.63;;;9.91;100.00
20909;BME280;10614;53.198;6.570;2023-03-23T00:09:05;100034.59;;;9.92;100.00
20909;BME280;10614;53.198;6.570;2023-03-23T00:11:07;100045.09;;;9.92;100.00
20909;BME280;10614;53.198;6.570;2023-03-23T00:13:09;100044.19;;;9.93;100.00
20909;BME280;10614;53.198;6.570;2023-03-23T00:15:11;100044.97;;;9.95;100.00
20909;BME280;10614;53.198;6.570;2023-03-23T00:17:13;100046.66;;;9.96;100.00
20909;BME280;10614;53.198;6.570;2023-03-23T00:19:16;100053.59;;;9.97;100.00
20909;BME280;10614;53.198;6.570;2023-03-23T00:21:19;100064.88;;;9.99;100.00
20909;BME280;10614;53.198;6.570;2023-03-23T00:23:21;100062.19;;;10.01;100.00
20909;BME280;10614;53.198;6.570;2023-03-23T00:25:23;100064.75;;;10.02;100.00
20909;BME280;10614;53.198;6.570;2023-03-23T00:27:24;100062.13;;;10.02;100.00
20909;BME280;10614;53.198;6.570;2023-03-23T00:29:26;100063.03;;;10.01;100.00
20909;BME280;10614;53.198;6.570;2023-03-23T00:31:28;100055.94;;;10.03;100.00
20909;BME280;10614;53.198;6.570;2023-03-23T00:33:34;100062.03;;;10.04;100.00
20909;BME280;10614;53.198;6.570;2023-03-23T00:35:39;100057.72;;;10.03;100.00
20909;BME280;10614;53.198;6.570;2023-03-23T00:37:40;100063.81;;;10.03;100.00
20909;BME280;10614;53.198;6.570;2023-03-23T00:39:43;100062.03;;;10.04;100.00
20909;BME280;10614;53.198;6.570;2023-03-23T00:41:46;100071.53;;;10.06;100.00
20909;BME280;10614;53.198;6.570;2023-03-23T00:43:49;100055.00;;;10.04;100.00
20909;BME280;10614;53.198;6.570;2023-03-23T00:45:51;100043.50;;;10.07;100.00
20909;BME280;10614;53.198;6.570;2023-03-23T00:47:53;100042.56;;;10.08;100.00
20909;BME280;10614;53.198;6.570;2023-03-23T00:49:56;100034.59;;;10.09;100.00
20909;BME280;10614;53.198;6.570;2023-03-23T00:51:59;100026.72;;;10.09;100.00
20909;BME280;10614;53.198;6.570;2023-03-23T00:54:00;100038.13;;;10.08;100.00
20909;BME280;10614;53.198;6.570;2023-03-23T00:56:02;100046.81;;;10.10;100.00
20909;BME280;10614;53.198;6.570;2023-03-23T00:58:04;100044.09;;;10.12;100.00
20909;BME280;10614;53.198;6.570;2023-03-23T01:00:06;100056.31;;;10.13;100.00
20909;BME280;10614;53.198;6.570;2023-03-23T01:02:11;100079.19;;;10.11;100.00
20909;BME280;10614;53.198;6.570;2023-03-23T01:04:12;100066.84;;;10.13;100.00
20909;BME280;10614;53.198;6.570;2023-03-23T01:06:14;100057.31;;;10.10;100.00
20909;BME280;10614;53.198;6.570;2023-03-23T01:08:17;100044.56;;;10.03;100.00
20909;BME280;10614;53.198;6.570;2023-03-23T01:10:19;100044.63;;;10.01;100.00
20909;BME280;10614;53.198;6.570;2023-03-23T01:12:21;100040.63;;;9.94;100.00
20909;BME280;10614;53.198;6.570;2023-03-23T01:14:24;100045.09;;;9.92;100.00
20909;BME280;10614;53.198;6.570;2023-03-23T01:16:26;100030.34;;;9.89;100.00
20909;BME280;10614;53.198;6.570;2023-03-23T01:18:28;100021.59;;;9.89;100.00
20909;BME280;10614;53.198;6.570;2023-03-23T01:20:29;100014.56;;;9.89;100.00
20909;BME280;10614;53.198;6.570;2023-03-23T01:22:31;100005.00;;;9.88;100.00
20909;BME280;10614;53.198;6.570;2023-03-23T01:24:34;99999.72;;;9.88;100.00
20909;BME280;10614;53.198;6.570;2023-03-23T01:26:36;99981.31;;;9.88;100.00
20909;BME280;10614;53.198;6.570;2023-03-23T01:28:37;99975.13;;;9.89;100.00
20909;BME280;10614;53.198;6.570;2023-03-23T01:30:39;99967.31;;;9.88;100.00
20909;BME280;10614;53.198;6.570;2023-03-23T01:32:40;99976.84;;;9.90;100.00
20909;BME280;10614;53.198;6.570;2023-03-23T01:34:42;99976.91;;;9.89;100.00
20909;BME280;10614;53.198;6.570;2023-03-23T01:36:43;99975.06;;;9.91;100.00
20909;BME280;10614;53.198;6.570;2023-03-23T01:38:46;99971.50;;;9.92;100.00
20909;BME280;10614;53.198;6.570;2023-03-23T01:40:49;99972.25;;;9.94;100.00
20909;BME280;10614;53.198;6.570;2023-03-23T01:42:51;99974.97;;;9.92;100.00
20909;BME280;10614;53.198;6.570;2023-03-23T01:47:15;99965.22;;;9.94;100.00
20909;BME280;10614;53.198;6.570;2023-03-23T01:49:17;99962.53;;;9.96;100.00
20909;BME280;10614;53.198;6.570;2023-03-23T01:51:20;99964.22;;;9.97;100.00
20909;BME280;10614;53.198;6.570;2023-03-23T01:53:22;99972.88;;;9.99;100.00
20909;BME280;10614;53.198;6.570;2023-03-23T01:55:26;99971.13;;;10.00;100.00
20909;BME280;10614;53.198;6.570;2023-03-23T01:57:29;99971.03;;;10.01;100.00
20909;BME280;10614;53.198;6.570;2023-03-23T01:59:31;99966.59;;;10.02;100.00
20909;BME280;10614;53.198;6.570;2023-03-23T02:01:35;99962.13;;;10.04;100.00
20909;BME280;10614;53.198;6.570;2023-03-23T02:03:39;99952.31;;;10.07;100.00
20909;BME280;10614;53.198;6.570;2023-03-23T02:05:42;99953.16;;;10.08;100.00
20909;BME280;10614;53.198;6.570;2023-03-23T02:07:44;99960.09;;;10.09;100.00
20909;BME280;10614;53.198;6.570;2023-03-23T02:09:46;99953.09;;;10.09;100.00
20909;BME280;10614;53.198;6.570;2023-03-23T02:11:48;99933.72;;;10.10;100.00
20909;BME280;10614;53.198;6.570;2023-03-23T02:13:51;99917.94;;;10.10;100.00
20909;BME280;10614;53.198;6.570;2023-03-23T02:15:56;99935.34;;;10.13;100.00
20909;BME280;10614;53.198;6.570;2023-03-23T02:18:03;99947.59;;;10.14;100.00
20909;BME280;10614;53.198;6.570;2023-03-23T02:20:13;99933.50;;;10.15;100.00
20909;BME280;10614;53.198;6.570;2023-03-23T02:22:22;99935.34;;;10.13;100.00
20909;BME280;10614;53.198;6.570;2023-03-23T02:24:46;99942.31;;;10.14;100.00
20909;BME280;10614;53.198;6.570;2023-03-23T02:26:53;99941.38;;;10.15;100.00
20909;BME280;10614;53.198;6.570;2023-03-23T02:29:03;99929.06;;;10.15;100.00
20909;BME280;10614;53.198;6.570;2023-03-23T02:31:13;99933.41;;;10.17;100.00
20909;BME280;10614;53.198;6.570;2023-03-23T02:33:30;99925.44;;;10.18;100.00
20909;BME280;10614;53.198;6.570;2023-03-23T02:35:36;99930.63;;;10.20;100.00
20909;BME280;10614;53.198;6.570;2023-03-23T02:37:39;99939.34;;;10.20;100.00
20909;BME280;10614;53.198;6.570;2023-03-23T02:39:44;99924.41;;;10.21;100.00
20909;BME280;10614;53.198;6.570;2023-03-23T02:41:47;99920.09;;;10.20;100.00
20909;BME280;10614;53.198;6.570;2023-03-23T02:43:51;99924.34;;;10.22;100.00
20909;BME280;10614;53.198;6.570;2023-03-23T02:45:54;99926.97;;;10.22;100.00
20909;BME280;10614;53.198;6.570;2023-03-23T02:47:57;99926.06;;;10.23;100.00
20909;BME280;10614;53.198;6.570;2023-03-23T02:50:01;99913.75;;;10.24;100.00
20909;BME280;10614;53.198;6.570;2023-03-23T02:52:05;99912.91;;;10.23;100.00
20909;BME280;10614;53.198;6.570;2023-03-23T02:54:08;99906.72;;;10.24;100.00
20909;BME280;10614;53.198;6.570;2023-03-23T02:56:10;99898.81;;;10.24;100.00
20909;BME280;10614;53.198;6.570;2023-03-23T02:58:14;99893.56;;;10.24;100.00
20909;BME280;10614;53.198;6.570;2023-03-23T03:00:16;99891.88;;;10.23;100.00
20909;BME280;10614;53.198;6.570;2023-03-23T03:02:18;99896.00;;;10.27;100.00
20909;BME280;10614;53.198;6.570;2023-03-23T03:04:22;99898.75;;;10.26;100.00
20909;BME280;10614;53.198;6.570;2023-03-23T03:06:30;99894.31;;;10.26;100.00
20909;BME280;10614;53.198;6.570;2023-03-23T03:08:35;99893.38;;;10.27;100.00
20909;BME280;10614;53.198;6.570;2023-03-23T03:10:42;99896.13;;;10.26;100.00
20909;BME280;10614;53.198;6.570;2023-03-23T03:12:49;99896.00;;;10.27;100.00
20909;BME280;10614;53.198;6.570;2023-03-23T03:14:54;99903.84;;;10.29;100.00
20909;BME280;10614;53.198;6.570;2023-03-23T03:17:00;99891.63;;;10.28;100.00
20909;BME280;10614;53.198;6.570;2023-03-23T03:19:06;99876.72;;;10.28;100.00
20909;BME280;10614;53.198;6.570;2023-03-23T03:21:12;99882.84;;;10.27;100.00
20909;BME280;10614;53.198;6.570;2023-03-23T03:23:16;99899.59;;;10.26;100.00
20909;BME280;10614;53.198;6.570;2023-03-23T03:25:18;99877.59;;;10.27;100.00
20909;BME280;10614;53.198;6.570;2023-03-23T03:27:23;99889.88;;;10.28;100.00
20909;BME280;10614;53.198;6.570;2023-03-23T03:29:26;99882.81;;;10.29;100.00
20909;BME280;10614;53.198;6.570;2023-03-23T03:31:31;99872.28;;;10.29;100.00
20909;BME280;10614;53.198;6.570;2023-03-23T03:33:33;99872.28;;;10.29;100.00
20909;BME280;10614;53.198;6.570;2023-03-23T03:35:35;99856.50;;;10.29;100.00
20909;BME280;10614;53.198;6.570;2023-03-23T03:37:38;99861.78;;;10.29;100.00
20909;BME280;10614;53.198;6.570;2023-03-23T03:39:42;99854.81;;;10.28;100.00
20909;BME280;10614;53.198;6.570;2023-03-23T03:41:43;99864.44;;;10.27;100.00
20909;BME280;10614;53.198;6.570;2023-03-23T03:43:45;99870.66;;;10.26;100.00
20909;BME280;10614;53.198;6.570;2023-03-23T03:45:47;99869.81;;;10.26;100.00
20909;BME280;10614;53.198;6.570;2023-03-23T03:47:48;99875.06;;;10.26;100.00
20909;BME280;10614;53.198;6.570;2023-03-23T03:49:50;99880.34;;;10.26;100.00
20909;BME280;10614;53.198;6.570;2023-03-23T03:51:52;99889.91;;;10.27;100.00
20909;BME280;10614;53.198;6.570;2023-03-23T03:53:53;99888.06;;;10.29;100.00
20909;BME280;10614;53.198;6.570;2023-03-23T03:55:57;99890.75;;;10.27;100.00
20909;BME280;10614;53.198;6.570;2023-03-23T03:58:00;99882.97;;;10.26;100.00
20909;BME280;10614;53.198;6.570;2023-03-23T04:00:01;99878.72;;;10.23;100.00
20909;BME280;10614;53.198;6.570;2023-03-23T04:02:12;99890.22;;;10.21;100.00
20909;BME280;10614;53.198;6.570;2023-03-23T04:04:16;99882.63;;;10.16;100.00
20909;BME280;10614;53.198;6.570;2023-03-23T04:06:18;99873.25;;;10.10;100.00
20909;BME280;10614;53.198;6.570;2023-03-23T04:08:19;99878.69;;;10.07;100.00
20909;BME280;10614;53.198;6.570;2023-03-23T04:10:22;99887.50;;;10.06;100.00
20909;BME280;10614;53.198;6.570;2023-03-23T04:12:25;99884.09;;;10.04;100.00
20909;BME280;10614;53.198;6.570;2023-03-23T04:14:26;99894.78;;;10.01;100.00
20909;BME280;10614;53.198;6.570;2023-03-23T04:16:28;99886.28;;;9.96;100.00
20909;BME280;10614;53.198;6.570;2023-03-23T04:18:31;99892.72;;;9.90;100.00
20909;BME280;10614;53.198;6.570;2023-03-23T04:20:34;99876.50;;;9.82;100.00
20909;BME280;10614;53.198;6.570;2023-03-23T04:22:35;99879.44;;;9.76;100.00
20909;BME280;10614;53.198;6.570;2023-03-23T04:24:36;99863.81;;;9.73;100.00
20909;BME280;10614;53.198;6.570;2023-03-23T04:26:38;99877.31;;;9.67;100.00
20909;BME280;10614;53.198;6.570;2023-03-23T04:28:43;99880.47;;;9.56;100.00
20909;BME280;10614;53.198;6.570;2023-03-23T04:30:45;99903.34;;;9.54;100.00
20909;BME280;10614;53.198;6.570;2023-03-23T04:32:49;99918.44;;;9.50;100.00
20909;BME280;10614;53.198;6.570;2023-03-23T04:34:52;99918.50;;;9.49;100.00
20909;BME280;10614;53.198;6.570;2023-03-23T04:36:53;99935.25;;;9.46;100.00
20909;BME280;10614;53.198;6.570;2023-03-23T04:38:56;99901.34;;;9.42;100.00
20909;BME280;10614;53.198;6.570;2023-03-23T04:40:58;99938.41;;;9.36;100.00
20909;BME280;10614;53.198;6.570;2023-03-23T04:43:00;99902.03;;;9.28;100.00
20909;BME280;10614;53.198;6.570;2023-03-23T04:45:07;99883.31;;;9.17;100.00
20909;BME280;10614;53.198;6.570;2023-03-23T04:47:10;99929.81;;;9.15;100.00
20909;BME280;10614;53.198;6.570;2023-03-23T04:49:13;99910.66;;;9.13;100.00
20909;BME280;10614;53.198;6.570;2023-03-23T04:51:20;99903.66;;;9.13;100.00
20909;BME280;10614;53.198;6.570;2023-03-23T04:53:22;99911.53;;;9.13;100.00
20909;BME280;10614;53.198;6.570;2023-03-23T04:55:23;99910.59;;;9.14;100.00
20909;BME280;10614;53.198;6.570;2023-03-23T04:57:25;99909.75;;;9.14;100.00
20909;BME280;10614;53.198;6.570;2023-03-23T04:59:32;99908.03;;;9.13;100.00
20909;BME280;10614;53.198;6.570;2023-03-23T05:01:35;99895.78;;;9.13;100.00
20909;BME280;10614;53.198;6.570;2023-03-23T05:03:38;99909.56;;;9.17;100.00
20909;BME280;10614;53.198;6.570;2023-03-23T05:05:39;99897.28;;;9.17;100.00
20909;BME280;10614;53.198;6.570;2023-03-23T05:07:41;99911.28;;;9.18;100.00
20909;BME280;10614;53.198;6.570;2023-03-23T05:09:46;99909.34;;;9.21;100.00
20909;BME280;10614;53.198;6.570;2023-03-23T05:11:48;99911.91;;;9.23;100.00
20909;BME280;10614;53.198;6.570;2023-03-23T05:13:50;99903.81;;;9.27;100.00
20909;BME280;10614;53.198;6.570;2023-03-23T05:15:51;99911.53;;;9.30;100.00
20909;BME280;10614;53.198;6.570;2023-03-23T05:17:54;99898.22;;;9.34;100.00
20909;BME280;10614;53.198;6.570;2023-03-23T05:19:56;99894.69;;;9.35;100.00
20909;BME280;10614;53.198;6.570;2023-03-23T05:21:59;99892.84;;;9.37;100.00
20909;BME280;10614;53.198;6.570;2023-03-23T05:24:03;99903.97;;;9.42;100.00
20909;BME280;10614;53.198;6.570;2023-03-23T05:26:04;99916.25;;;9.41;100.00
20909;BME280;10614;53.198;6.570;2023-03-23T05:28:06;99908.28;;;9.43;100.00
20909;BME280;10614;53.198;6.570;2023-03-23T05:30:09;99925.66;;;9.45;100.00
20909;BME280;10614;53.198;6.570;2023-03-23T05:32:13;99924.75;;;9.46;100.00
20909;BME280;10614;53.198;6.570;2023-03-23T05:34:18;99927.28;;;9.48;100.00
20909;BME280;10614;53.198;6.570;2023-03-23T05:36:19;99925.44;;;9.50;100.00
20909;BME280;10614;53.198;6.570;2023-03-23T05:38:22;99925.44;;;9.50;100.00
20909;BME280;10614;53.198;6.570;2023-03-23T05:40:24;99954.31;;;9.50;100.00
20909;BME280;10614;53.198;6.570;2023-03-23T05:42:27;99947.16;;;9.54;100.00
20909;BME280;10614;53.198;6.570;2023-03-23T05:44:29;99941.97;;;9.52;100.00
20909;BME280;10614;53.198;6.570;2023-03-23T05:46:31;99952.47;;;9.52;100.00
20909;BME280;10614;53.198;6.570;2023-03-23T05:48:33;99942.06;;;9.50;100.00
20909;BME280;10614;53.198;6.570;2023-03-23T05:50:36;99946.44;;;9.50;100.00
20909;BME280;10614;53.198;6.570;2023-03-23T05:52:38;99972.72;;;9.50;100.00
20909;BME280;10614;53.198;6.570;2023-03-23T05:54:40;99962.22;;;9.50;100.00
20909;BME280;10614;53.198;6.570;2023-03-23T05:56:41;99953.41;;;9.51;100.00
20909;BME280;10614;53.198;6.570;2023-03-23T05:58:43;99949.16;;;9.48;100.00
20909;BME280;10614;53.198;6.570;2023-03-23T06:00:45;99959.69;;;9.48;100.00
20909;BME280;10614;53.198;6.570;2023-03-23T06:02:47;99962.31;;;9.48;100.00
20909;BME280;10614;53.198;6.570;2023-03-23T06:04:49;99954.50;;;9.47;100.00
20909;BME280;10614;53.198;6.570;2023-03-23T06:06:58;99961.53;;;9.46;100.00
20909;BME280;10614;53.198;6.570;2023-03-23T06:09:00;99957.13;;;9.47;100.00
20909;BME280;10614;53.198;6.570;2023-03-23T06:11:03;99965.84;;;9.47;100.00
20909;BME280;10614;53.198;6.570;2023-03-23T06:13:06;99977.34;;;9.45;100.00
20909;BME280;10614;53.198;6.570;2023-03-23T06:15:08;99966.06;;;9.43;100.00
20909;BME280;10614;53.198;6.570;2023-03-23T06:17:11;99965.00;;;9.47;100.00
20909;BME280;10614;53.198;6.570;2023-03-23T06:19:13;99972.88;;;9.47;100.00
20909;BME280;10614;53.198;6.570;2023-03-23T06:21:15;99976.28;;;9.49;100.00
20909;BME280;10614;53.198;6.570;2023-03-23T06:23:20;99973.81;;;9.46;100.00
20909;BME280;10614;53.198;6.570;2023-03-23T06:25:21;99974.56;;;9.48;100.00
20909;BME280;10614;53.198;6.570;2023-03-23T06:27:23;99987.63;;;9.49;100.00
20909;BME280;10614;53.198;6.570;2023-03-23T06:29:25;99993.84;;;9.48;100.00
20909;BME280;10614;53.198;6.570;2023-03-23T06:31:27;99999.88;;;9.50;100.00
20909;BME280;10614;53.198;6.570;2023-03-23T06:33:29;99998.09;;;9.51;100.00
20909;BME280;10614;53.198;6.570;2023-03-23T06:35:30;99992.72;;;9.52;100.00
20909;BME280;10614;53.198;6.570;2023-03-23T06:37:34;100010.28;;;9.52;100.00
20909;BME280;10614;53.198;6.570;2023-03-23T06:39:37;100023.50;;;9.50;100.00
20909;BME280;10614;53.198;6.570;2023-03-23T06:41:39;100047.06;;;9.52;100.00
20909;BME280;10614;53.198;6.570;2023-03-23T06:43:41;100027.03;;;9.49;100.00
20909;BME280;10614;53.198;6.570;2023-03-23T06:45:44;100042.88;;;9.48;100.00
20909;BME280;10614;53.198;6.570;2023-03-23T06:47:45;100035.22;;;9.43;100.00
20909;BME280;10614;53.198;6.570;2023-03-23T06:49:48;100018.91;;;9.37;100.00
20909;BME280;10614;53.198;6.570;2023-03-23T06:51:50;100024.66;;;9.26;100.00
20909;BME280;10614;53.198;6.570;2023-03-23T06:53:51;100069.59;;;9.20;100.00
20909;BME280;10614;53.198;6.570;2023-03-23T06:55:54;100048.03;;;9.13;100.00
20909;BME280;10614;53.198;6.570;2023-03-23T06:57:56;100039.38;;;9.11;100.00
20909;BME280;10614;53.198;6.570;2023-03-23T06:59:59;100056.03;;;9.10;100.00
20909;BME280;10614;53.198;6.570;2023-03-23T07:02:02;100057.88;;;9.08;100.00
20909;BME280;10614;53.198;6.570;2023-03-23T07:04:04;100060.44;;;9.09;100.00
20909;BME280;10614;53.198;6.570;2023-03-23T07:06:08;100050.94;;;9.07;100.00
20909;BME280;10614;53.198;6.570;2023-03-23T07:08:10;100050.94;;;9.07;100.00
20909;BME280;10614;53.198;6.570;2023-03-23T07:10:11;100050.31;;;9.02;100.00
20909;BME280;10614;53.198;6.570;2023-03-23T07:57:20;100065.75;;;9.27;100.00
20909;BME280;10614;53.198;6.570;2023-03-23T07:59:33;100076.75;;;9.35;100.00
20909;BME280;10614;53.198;6.570;2023-03-23T08:01:35;100072.28;;;9.37;100.00
20909;BME280;10614;53.198;6.570;2023-03-23T08:03:41;100069.44;;;9.42;100.00
20909;BME280;10614;53.198;6.570;2023-03-23T08:05:43;100080.66;;;9.45;100.00
20909;BME280;10614;53.198;6.570;2023-03-23T08:07:46;100093.72;;;9.47;100.00
20909;BME280;10614;53.198;6.570;2023-03-23T08:09:48;100087.47;;;9.49;100.00
20909;BME280;10614;53.198;6.570;2023-03-23T08:11:50;100097.91;;;9.51;100.00
20909;BME280;10614;53.198;6.570;2023-03-23T08:13:53;100107.31;;;9.55;100.00
20909;BME280;10614;53.198;6.570;2023-03-23T08:15:56;100095.91;;;9.56;100.00
20909;BME280;10614;53.198;6.570;2023-03-23T08:17:58;100099.31;;;9.58;100.00
20909;BME280;10614;53.198;6.570;2023-03-23T08:20:02;100115.72;;;9.63;100.00
20909;BME280;10614;53.198;6.570;2023-03-23T08:22:12;100094.69;;;9.63;100.00
20909;BME280;10614;53.198;6.570;2023-03-23T08:24:14;100093.69;;;9.66;100.00
20909;BME280;10614;53.198;6.570;2023-03-23T08:26:15;100100.50;;;9.70;100.00
20909;BME280;10614;53.198;6.570;2023-03-23T08:28:17;100105.66;;;9.71;100.00
20909;BME280;10614;53.198;6.570;2023-03-23T08:30:21;100102.13;;;9.72;100.00
20909;BME280;10614;53.198;6.570;2023-03-23T08:32:25;100106.31;;;9.77;100.00
20909;BME280;10614;53.198;6.570;2023-03-23T08:34:26;100110.63;;;9.78;100.00
20909;BME280;10614;53.198;6.570;2023-03-23T08:36:29;100110.63;;;9.78;100.00
20909;BME280;10614;53.198;6.570;2023-03-23T08:38:31;100122.09;;;9.77;100.00
20909;BME280;10614;53.198;6.570;2023-03-23T08:40:33;100137.09;;;9.75;100.00
20909;BME280;10614;53.198;6.570;2023-03-23T08:42:35;100118.69;;;9.75;100.00
20909;BME280;10614;53.198;6.570;2023-03-23T08:44:37;100126.56;;;9.75;100.00
20909;BME280;10614;53.198;6.570;2023-03-23T08:46:41;100121.38;;;9.73;100.00
20909;BME280;10614;53.198;6.570;2023-03-23T08:48:43;100115.22;;;9.74;100.00
20909;BME280;10614;53.198;6.570;2023-03-23T08:50:45;100122.09;;;9.77;100.00
20909;BME280;10614;53.198;6.570;2023-03-23T08:52:47;100118.47;;;9.79;100.00
20909;BME280;10614;53.198;6.570;2023-03-23T08:54:49;100117.41;;;9.83;100.00
20909;BME280;10614;53.198;6.570;2023-03-23T08:56:51;100120.94;;;9.82;100.00
20909;BME280;10614;53.198;6.570;2023-03-23T08:58:53;100113.91;;;9.83;100.00
20909;BME280;10614;53.198;6.570;2023-03-23T09:00:55;100131.22;;;9.87;100.00
20909;BME280;10614;53.198;6.570;2023-03-23T09:02:58;100123.13;;;9.91;100.00
20909;BME280;10614;53.198;6.570;2023-03-23T09:05:00;100122.97;;;9.94;100.00
20909;BME280;10614;53.198;6.570;2023-03-23T09:07:03;100136.81;;;9.98;100.00
20909;BME280;10614;53.198;6.570;2023-03-23T09:09:05;100123.50;;;10.01;100.00
20909;BME280;10614;53.198;6.570;2023-03-23T09:11:10;100135.66;;;10.04;100.00
20909;BME280;10614;53.198;6.570;2023-03-23T09:13:12;100142.75;;;10.02;100.00
20909;BME280;10614;53.198;6.570;2023-03-23T09:15:16;100129.50;;;10.05;100.00
20909;BME280;10614;53.198;6.570;2023-03-23T09:17:18;100136.50;;;10.04;100.00
20909;BME280;10614;53.198;6.570;2023-03-23T09:19:21;100139.69;;;10.11;100.00
20909;BME280;10614;53.198;6.570;2023-03-23T09:21:24;100129.81;;;10.16;100.00
20909;BME280;10614;53.198;6.570;2023-03-23T09:23:26;100142.56;;;10.24;100.00
20909;BME280;10614;53.198;6.570;2023-03-23T09:25:28;100145.97;;;10.26;100.00
20909;BME280;10614;53.198;6.570;2023-03-23T09:27:31;100140.72;;;10.26;100.00
20909;BME280;10614;53.198;6.570;2023-03-23T09:29:32;100148.41;;;10.30;100.00
20909;BME280;10614;53.198;6.570;2023-03-23T09:31:34;100138.56;;;10.34;100.00
20909;BME280;10614;53.198;6.570;2023-03-23T09:33:37;100176.97;;;10.38;100.00
20909;BME280;10614;53.198;6.570;2023-03-23T09:35:40;100143.00;;;10.33;100.00
20909;BME280;10614;53.198;6.570;2023-03-23T09:37:43;100152.56;;;10.34;100.00
20909;BME280;10614;53.198;6.570;2023-03-23T09:39:46;100160.25;;;10.39;100.00
20909;BME280;10614;53.198;6.570;2023-03-23T09:42:05;100164.81;;;10.35;100.00
20909;BME280;10614;53.198;6.570;2023-03-23T09:44:17;100171.94;;;10.33;100.00
20909;BME280;10614;53.198;6.570;2023-03-23T09:46:37;100174.63;;;10.32;100.00
20909;BME280;10614;53.198;6.570;2023-03-23T09:48:49;100185.25;;;10.30;100.00
20909;BME280;10614;53.198;6.570;2023-03-23T09:50:58;100158.84;;;10.32;100.00
20909;BME280;10614;53.198;6.570;2023-03-23T09:53:08;100165.66;;;10.36;100.00
20909;BME280;10614;53.198;6.570;2023-03-23T09:55:13;100158.47;;;10.40;100.00
20909;BME280;10614;53.198;6.570;2023-03-23T09:57:21;100156.53;;;10.43;100.00
20909;BME280;10614;53.198;6.570;2023-03-23T09:59:29;100166.06;;;10.46;100.00
20909;BME280;10614;53.198;6.570;2023-03-23T10:01:35;100175.50;;;10.50;100.00
20909;BME280;10614;53.198;6.570;2023-03-23T10:03:40;100175.34;;;10.53;100.00
20909;BME280;10614;53.198;6.570;2023-03-23T10:05:44;100180.53;;;10.54;100.00
20909;BME280;10614;53.198;6.570;2023-03-23T10:07:49;100177.66;;;10.59;100.00
20909;BME280;10614;53.198;6.570;2023-03-23T10:09:52;100171.56;;;10.59;100.00
20909;BME280;10614;53.198;6.570;2023-03-23T10:12:03;100166.19;;;10.60;100.00
20909;BME280;10614;53.198;6.570;2023-03-23T10:14:33;100172.25;;;10.62;100.00
20909;BME280;10614;53.198;6.570;2023-03-23T10:16:42;100202.81;;;10.65;100.00
20909;BME280;10614;53.198;6.570;2023-03-23T10:18:49;100184.09;;;10.71;100.00
20909;BME280;10614;53.198;6.570;2023-03-23T10:20:57;100173.72;;;10.68;100.00
20909;BME280;10614;53.198;6.570;2023-03-23T10:23:09;100185.88;;;10.70;100.00
20909;BME280;10614;53.198;6.570;2023-03-23T10:25:16;100178.13;;;10.67;100.00
20909;BME280;10614;53.198;6.570;2023-03-23T10:27:25;100180.50;;;10.72;100.00
20909;BME280;10614;53.198;6.570;2023-03-23T10:29:30;100186.56;;;10.74;100.00
20909;BME280;10614;53.198;6.570;2023-03-23T10:31:37;100184.41;;;10.82;100.00
20909;BME280;10614;53.198;6.570;2023-03-23T10:33:42;100178.28;;;10.82;100.00
20909;BME280;10614;53.198;6.570;2023-03-23T10:35:50;100191.19;;;10.86;100.00
20909;BME280;10614;53.198;6.570;2023-03-23T10:37:56;100193.56;;;10.91;100.00
20909;BME280;10614;53.198;6.570;2023-03-23T10:40:01;100209.25;;;10.94;100.00
20909;BME280;10614;53.198;6.570;2023-03-23T10:42:09;100195.13;;;10.95;100.00
20909;BME280;10614;53.198;6.570;2023-03-23T10:44:15;100199.47;;;10.96;100.00
20909;BME280;10614;53.198;6.570;2023-03-23T10:46:25;100193.34;;;10.95;100.00
20909;BME280;10614;53.198;6.570;2023-03-23T10:48:30;100211.53;;;11.00;100.00
20909;BME280;10614;53.198;6.570;2023-03-23T10:50:35;100190.22;;;11.05;100.00
20909;BME280;10614;53.198;6.570;2023-03-23T10:52:40;100185.44;;;11.13;100.00
20909;BME280;10614;53.198;6.570;2023-03-23T10:54:50;100191.13;;;11.21;100.00
20909;BME280;10614;53.198;6.570;2023-03-23T10:56:54;100216.91;;;11.32;100.00
20909;BME280;10614;53.198;6.570;2023-03-23T10:58:56;100189.56;;;11.34;100.00
20909;BME280;10614;53.198;6.570;2023-03-23T11:01:00;100193.63;;;11.40;100.00
20909;BME280;10614;53.198;6.570;2023-03-23T11:03:04;100202.16;;;11.45;100.00
20909;BME280;10614;53.198;6.570;2023-03-23T11:05:15;100194.00;;;11.50;100.00
20909;BME280;10614;53.198;6.570;2023-03-23T11:07:23;100200.72;;;11.55;100.00
20909;BME280;10614;53.198;6.570;2023-03-23T11:09:37;100196.16;;;11.59;100.00
20909;BME280;10614;53.198;6.570;2023-03-23T11:11:40;100198.69;;;11.60;100.00
20909;BME280;10614;53.198;6.570;2023-03-23T11:13:46;100201.66;;;11.70;100.00
20909;BME280;10614;53.198;6.570;2023-03-23T11:15:49;100190.97;;;11.73;100.00
20909;BME280;10614;53.198;6.570;2023-03-23T11:17:59;100192.47;;;11.77;100.00
20909;BME280;10614;53.198;6.570;2023-03-23T11:20:10;100200.50;;;11.76;98.18
20909;BME280;10614;53.198;6.570;2023-03-23T11:22:17;100207.56;;;11.75;99.71
20909;BME280;10614;53.198;6.570;2023-03-23T11:24:22;100226.75;;;11.77;100.00
20909;BME280;10614;53.198;6.570;2023-03-23T11:26:28;100211.69;;;11.79;100.00
20909;BME280;10614;53.198;6.570;2023-03-23T11:28:34;100196.47;;;11.84;99.35
20909;BME280;10614;53.198;6.570;2023-03-23T11:30:38;100199.84;;;11.88;98.24
20909;BME280;10614;53.198;6.570;2023-03-23T11:32:43;100213.34;;;11.98;97.16
20909;BME280;10614;53.198;6.570;2023-03-23T11:34:48;100183.91;;;12.06;95.07